createdAt,value
2022-12-17T00:00:40.948Z,21.9
2022-12-17T00:02:42.228Z,23.8
2022-12-17T00:04:43.144Z,24.4
2022-12-17T00:06:44.250Z,26.2
2022-12-17T00:08:45.341Z,22.2
2022-12-17T00:14:51.931Z,26.1
2022-12-17T00:18:54.174Z,25.6
2022-12-17T00:23:58.592Z,24.9
2022-12-17T00:25:59.689Z,24
2022-12-17T00:28:04.027Z,25
2022-12-17T00:30:05.157Z,20.8
2022-12-17T00:36:08.489Z,23
2022-12-17T00:38:09.625Z,24.2
2022-12-17T00:40:10.731Z,23.5
2022-12-17T00:42:15.121Z,25.4
2022-12-17T00:48:18.470Z,24
2022-12-17T00:50:19.602Z,27.1
2022-12-17T00:52:20.705Z,24.3
2022-12-17T00:54:21.818Z,24.2
2022-12-17T00:56:26.188Z,24
2022-12-17T00:58:27.255Z,25.3
2022-12-17T01:00:28.488Z,25
2022-12-17T01:02:29.690Z,25.7
2022-12-17T01:04:30.619Z,25.5
2022-12-17T01:06:31.755Z,26
2022-12-17T01:08:32.851Z,26.6
2022-12-17T01:12:38.390Z,25.7
2022-12-17T01:14:39.502Z,24.1
2022-12-17T01:15:41.662Z,25
2022-12-17T01:17:42.794Z,27.6
2022-12-17T01:21:45.037Z,26.4
2022-12-17T01:23:49.424Z,27.9
2022-12-17T01:25:50.531Z,26.1
2022-12-17T01:27:51.669Z,24.1
2022-12-17T01:29:52.788Z,22.8
2022-12-17T01:35:56.153Z,27.1
2022-12-17T01:38:00.537Z,25.1
2022-12-17T01:40:01.658Z,27
2022-12-17T01:42:02.780Z,24.1
2022-12-17T01:44:03.870Z,25
2022-12-17T01:46:05.114Z,24.6
2022-12-17T01:48:06.134Z,26.5
2022-12-17T01:50:07.263Z,24
2022-12-17T01:52:11.650Z,26.2
2022-12-17T01:56:13.870Z,25
2022-12-17T02:04:18.341Z,24.3
2022-12-17T02:06:22.707Z,31.3
2022-12-17T02:08:23.826Z,25.7
2022-12-17T02:10:24.965Z,24.9
2022-12-17T02:12:53.425Z,27.8
2022-12-17T02:14:54.546Z,28.2
2022-12-17T02:16:55.739Z,25.2
2022-12-17T02:19:00.032Z,27.3
2022-12-17T02:21:01.161Z,25.8
2022-12-17T02:23:02.271Z,26.3
2022-12-17T02:25:03.364Z,25.6
2022-12-17T02:27:04.469Z,23.6
2022-12-17T02:29:05.597Z,24.6
2022-12-17T02:31:06.706Z,25
2022-12-17T02:33:11.094Z,23.3
2022-12-17T02:35:12.224Z,25
2022-12-17T02:37:13.325Z,24.6
2022-12-17T02:39:14.465Z,24.2
2022-12-17T02:41:15.574Z,24.2
2022-12-17T02:43:16.665Z,28.7
2022-12-17T02:47:22.167Z,28.2
2022-12-17T02:49:23.272Z,26.3
2022-12-17T02:51:24.387Z,26.3
2022-12-17T02:53:25.506Z,27.6
2022-12-17T02:55:26.603Z,24.2
2022-12-17T02:57:27.736Z,27.2
2022-12-17T02:59:28.842Z,23.6
2022-12-17T03:01:33.411Z,23.6
2022-12-17T03:03:34.732Z,24.9
2022-12-17T03:05:45.176Z,24.7
2022-12-17T03:06:37.628Z,25.3
2022-12-17T03:08:38.727Z,24.3
2022-12-17T03:10:39.811Z,25.7
2022-12-17T03:12:40.939Z,23.7
2022-12-17T03:14:45.336Z,27
2022-12-17T03:16:46.456Z,25
2022-12-17T03:18:47.532Z,24.5
2022-12-17T03:20:48.671Z,25.3
2022-12-17T03:22:49.730Z,25.6
2022-12-17T03:24:50.851Z,28.4
2022-12-17T03:26:51.965Z,26
2022-12-17T03:28:56.313Z,24
2022-12-17T03:30:57.494Z,26.8
2022-12-17T03:32:58.556Z,27
2022-12-17T03:34:59.656Z,25.6
2022-12-17T03:39:01.890Z,27.8
2022-12-17T03:41:02.957Z,26.6
2022-12-17T03:43:07.338Z,27.9
2022-12-17T03:45:08.468Z,26.5
2022-12-17T03:47:09.548Z,24.1
2022-12-17T03:49:10.648Z,25.2
2022-12-17T03:51:11.759Z,23.6
2022-12-17T03:53:12.872Z,24.2
2022-12-17T03:55:13.979Z,24.8
2022-12-17T03:57:19.850Z,26.5
2022-12-17T03:59:20.960Z,25.1
2022-12-17T04:01:22.168Z,26.9
2022-12-17T04:06:26.448Z,25
2022-12-17T04:08:27.552Z,26.2
2022-12-17T04:12:33.037Z,26
2022-12-17T04:14:34.146Z,27.7
2022-12-17T04:16:35.224Z,27.4
2022-12-17T04:18:36.317Z,27.4
2022-12-17T04:20:37.440Z,27.6
2022-12-17T04:22:38.529Z,26
2022-12-17T04:24:42.918Z,28.6
2022-12-17T04:26:43.995Z,26.6
2022-12-17T04:28:45.071Z,24.7
2022-12-17T04:30:46.248Z,28.9
2022-12-17T04:32:47.281Z,21.7
2022-12-17T04:34:48.363Z,27.2
2022-12-17T04:36:49.470Z,26
2022-12-17T04:38:53.790Z,25.2
2022-12-17T04:40:54.915Z,25.4
2022-12-17T04:42:56.015Z,26.7
2022-12-17T04:48:59.347Z,38
2022-12-17T04:51:00.451Z,47.7
2022-12-17T04:53:04.786Z,50.6
2022-12-17T04:55:05.868Z,28.8
2022-12-17T04:57:06.983Z,29.7
2022-12-17T04:58:09.156Z,29.5
2022-12-17T05:00:10.296Z,28.3
2022-12-17T05:02:11.528Z,27.5
2022-12-17T05:04:12.459Z,25
2022-12-17T05:06:16.808Z,28.1
2022-12-17T05:08:17.918Z,25.9
2022-12-17T05:10:19.025Z,25.5
2022-12-17T05:12:20.127Z,24.3
2022-12-17T05:14:21.196Z,28.5
2022-12-17T05:16:22.329Z,27.4
2022-12-17T05:18:23.403Z,27.2
2022-12-17T05:20:27.742Z,28.3
2022-12-17T05:22:28.845Z,26.5
2022-12-17T05:24:29.926Z,30.7
2022-12-17T05:26:31.030Z,25.5
2022-12-17T05:28:32.124Z,28
2022-12-17T05:30:33.202Z,26.1
2022-12-17T05:32:34.308Z,24.3
2022-12-17T05:34:38.664Z,29.9
2022-12-17T05:36:39.760Z,27.1
2022-12-17T05:38:40.856Z,26.1
2022-12-17T05:40:41.972Z,27.8
2022-12-17T05:42:43.024Z,26.7
2022-12-17T05:44:44.110Z,26.5
2022-12-17T05:46:45.282Z,24.2
2022-12-17T05:48:49.614Z,26.4
2022-12-17T05:55:20.227Z,28.2
2022-12-17T05:57:21.383Z,27.2
2022-12-17T05:59:22.445Z,28.3
2022-12-17T06:01:26.853Z,29.4
2022-12-17T06:03:28.033Z,30.6
2022-12-17T06:05:28.973Z,28.1
2022-12-17T06:07:30.047Z,32.2
2022-12-17T06:09:31.147Z,27.9
2022-12-17T06:11:32.216Z,26.7
2022-12-17T06:13:33.636Z,28.8
2022-12-17T06:15:37.655Z,27.7
2022-12-17T06:17:38.762Z,30.4
2022-12-17T06:19:39.867Z,29.5
2022-12-17T06:21:40.924Z,28.5
2022-12-17T06:27:44.200Z,28.4
2022-12-17T06:29:48.559Z,29.8
2022-12-17T06:31:49.738Z,28.4
2022-12-17T06:33:50.724Z,27.5
2022-12-17T06:35:51.831Z,25.2
2022-12-17T06:39:54.003Z,33.7
2022-12-17T06:43:59.393Z,29.6
2022-12-17T06:46:00.481Z,28.1
2022-12-17T06:48:01.556Z,27.3
2022-12-17T06:49:03.743Z,35.3
2022-12-17T06:51:04.849Z,31.1
2022-12-17T06:55:07.000Z,28.5
2022-12-17T06:57:11.335Z,34
2022-12-17T06:59:12.398Z,30.5
2022-12-17T07:01:13.662Z,30.4
2022-12-17T07:03:14.931Z,28.9
2022-12-17T07:07:16.740Z,30.1
2022-12-17T07:09:17.794Z,31.2
2022-12-17T07:11:22.244Z,34.2
2022-12-17T07:13:23.234Z,31.4
2022-12-17T07:17:25.414Z,30.2
2022-12-17T07:19:27.665Z,36
2022-12-17T07:21:27.552Z,29.6
2022-12-17T07:23:28.606Z,31.8
2022-12-17T07:27:34.053Z,35.8
2022-12-17T07:29:35.101Z,33.1
2022-12-17T07:31:36.316Z,34
2022-12-17T07:33:37.526Z,32.9
2022-12-17T07:35:38.353Z,31.3
2022-12-17T07:37:39.429Z,35.6
2022-12-17T07:39:43.779Z,35.8
2022-12-17T07:41:44.897Z,31.5
2022-12-17T07:43:49.679Z,38
2022-12-17T07:44:48.153Z,34.2
2022-12-17T07:46:49.207Z,34.6
2022-12-17T07:48:50.326Z,36.8
2022-12-17T07:50:51.397Z,32.8
2022-12-17T07:52:55.768Z,32.5
2022-12-17T07:54:56.827Z,35.8
2022-12-17T07:56:57.995Z,33.4
2022-12-17T07:58:58.977Z,36.2
2022-12-17T08:01:00.139Z,33.2
2022-12-17T08:03:01.260Z,37.5
2022-12-17T08:05:02.203Z,36.3
2022-12-17T08:07:10.317Z,35.4
2022-12-17T08:09:07.633Z,35.3
2022-12-17T08:11:08.718Z,36.9
2022-12-17T08:13:14.049Z,33.5
2022-12-17T08:15:10.872Z,35.7
2022-12-17T08:17:11.954Z,30
2022-12-17T08:19:13.046Z,33
2022-12-17T08:21:17.412Z,36
2022-12-17T08:23:18.474Z,37.5
2022-12-17T08:25:19.557Z,33.9
2022-12-17T08:27:20.620Z,35.5
2022-12-17T08:29:22.574Z,31.9
2022-12-17T08:33:24.730Z,33
2022-12-17T08:35:29.067Z,36.4
2022-12-17T08:39:31.240Z,34.8
2022-12-17T08:58:46.472Z,32.7
2022-12-17T09:06:54.034Z,32.1
2022-12-17T09:08:55.139Z,32.1
2022-12-17T09:10:56.228Z,32.7
2022-12-17T09:13:02.631Z,29.6
2022-12-17T09:14:58.385Z,33.2
2022-12-17T09:19:03.839Z,35.5
2022-12-17T09:21:04.926Z,34.5
2022-12-17T09:25:07.089Z,32.5
2022-12-17T09:27:08.208Z,33.4
2022-12-17T09:29:09.307Z,31.9
2022-12-17T09:31:13.653Z,38.6
2022-12-17T09:33:14.679Z,39.6
2022-12-17T09:35:15.800Z,33.9
2022-12-17T09:37:44.265Z,38.7
2022-12-17T09:39:45.347Z,33.9
2022-12-17T09:41:46.443Z,34.5
2022-12-17T09:43:52.329Z,36.7
2022-12-17T09:47:54.480Z,34.2
2022-12-17T09:49:55.567Z,38.6
2022-12-17T09:53:57.764Z,32.5
2022-12-17T09:55:58.885Z,27.4
2022-12-17T10:00:04.377Z,33.8
2022-12-17T10:02:05.651Z,34.1
2022-12-17T10:04:06.579Z,32.4
2022-12-17T10:12:14.215Z,36.2
2022-12-17T10:22:19.748Z,41.3
2022-12-17T10:24:20.836Z,38.7
2022-12-17T10:26:25.218Z,39.1
2022-12-17T10:28:26.312Z,37.9
2022-12-17T10:30:27.430Z,38.7
2022-12-17T10:31:29.625Z,44.8
2022-12-17T10:33:30.715Z,41.8
2022-12-17T10:35:31.816Z,48.1
2022-12-17T10:37:32.928Z,43.6
2022-12-17T10:39:37.259Z,39.8
2022-12-17T10:41:38.367Z,41.3
2022-12-17T10:43:39.585Z,39.8
2022-12-17T10:45:40.596Z,42
2022-12-17T10:47:41.709Z,39.9
2022-12-17T10:53:48.295Z,40.8
2022-12-17T10:55:49.411Z,40.5
2022-12-17T10:57:50.507Z,43.3
2022-12-17T11:05:57.852Z,39.6
2022-12-17T11:07:59.274Z,39.7
2022-12-17T11:18:09.438Z,38.6
2022-12-17T11:20:05.903Z,36
2022-12-17T11:22:10.261Z,37.8
2022-12-17T11:24:11.376Z,37.2
2022-12-17T11:27:14.672Z,41.5
2022-12-17T11:29:15.783Z,34.8
2022-12-17T11:31:16.969Z,35.6
2022-12-17T11:33:18.028Z,37.2
2022-12-17T11:35:22.374Z,35.2
2022-12-17T11:39:24.571Z,37.4
2022-12-17T11:41:25.707Z,37.1
2022-12-17T11:43:26.835Z,39.3
2022-12-17T11:45:27.938Z,35.6
2022-12-17T11:47:29.039Z,36.7
2022-12-17T11:51:34.517Z,40.1
2022-12-17T11:55:36.734Z,34.5
2022-12-17T11:57:37.838Z,36.3
2022-12-17T12:01:40.184Z,35
2022-12-17T12:03:44.573Z,35.8
2022-12-17T12:05:45.558Z,36.4
2022-12-17T12:09:47.772Z,35.1
2022-12-17T12:11:48.873Z,35.7
2022-12-17T12:13:49.999Z,35.1
2022-12-17T12:15:51.218Z,34.8
2022-12-17T12:17:55.496Z,36.8
2022-12-17T12:19:56.639Z,31.9
2022-12-17T12:22:59.901Z,38.4
2022-12-17T12:25:01.043Z,30
2022-12-17T12:27:02.178Z,37.7
2022-12-17T12:29:03.302Z,33.5
2022-12-17T12:31:07.669Z,34.9
2022-12-17T12:33:10.288Z,34.4
2022-12-17T12:35:09.864Z,33.9
2022-12-17T12:37:10.978Z,35.1
2022-12-17T12:39:12.080Z,39.9
2022-12-17T12:41:13.220Z,40.4
2022-12-17T12:43:14.322Z,38.5
2022-12-17T12:45:18.784Z,33.6
2022-12-17T12:47:19.834Z,34.1
2022-12-17T12:49:20.958Z,30.5
2022-12-17T12:51:22.077Z,31.8
2022-12-17T12:53:23.219Z,36.8
2022-12-17T12:55:24.305Z,34.3
2022-12-17T12:57:28.356Z,37.4
2022-12-17T12:59:29.820Z,37.1
2022-12-17T13:01:31.060Z,39.4
2022-12-17T13:03:37.891Z,33.3
2022-12-17T13:05:33.242Z,35.4
2022-12-17T13:07:34.291Z,35.4
2022-12-17T13:09:35.544Z,36.8
2022-12-17T13:11:36.542Z,37.5
2022-12-17T13:13:40.888Z,30.8
2022-12-17T13:15:41.990Z,35.2
2022-12-17T13:17:43.090Z,34.5
2022-12-17T13:20:11.554Z,34.6
2022-12-17T13:22:12.672Z,34.9
2022-12-17T13:24:13.781Z,34.9
2022-12-17T13:26:18.189Z,37.2
2022-12-17T13:28:22.939Z,33.6
2022-12-17T13:30:20.393Z,33.4
2022-12-17T13:32:21.532Z,36.2
2022-12-17T13:34:22.604Z,39
2022-12-17T13:36:23.729Z,37.2
2022-12-17T13:38:24.848Z,33.5
2022-12-17T13:40:29.223Z,35.6
2022-12-17T13:42:30.350Z,35
2022-12-17T13:44:31.438Z,37.7
2022-12-17T13:46:32.641Z,37.2
2022-12-17T13:48:33.706Z,38.8
2022-12-17T13:50:35.877Z,33.4
2022-12-17T13:52:35.887Z,34.8
2022-12-17T13:54:40.240Z,37.3
2022-12-17T13:56:41.354Z,31.3
2022-12-17T13:58:42.453Z,37.1
2022-12-17T14:00:43.603Z,35.2
2022-12-17T14:02:44.718Z,33.8
2022-12-17T14:04:45.749Z,35
2022-12-17T14:06:46.865Z,34.4
2022-12-17T14:08:51.270Z,34.2
2022-12-17T14:10:52.327Z,34.1
2022-12-17T14:12:53.443Z,35.1
2022-12-17T14:13:55.592Z,35
2022-12-17T14:15:56.717Z,34.5
2022-12-17T14:17:57.807Z,33.9
2022-12-17T14:19:58.929Z,35.4
2022-12-17T14:22:03.260Z,38.6
2022-12-17T14:24:04.386Z,35.3
2022-12-17T14:26:05.500Z,37.3
2022-12-17T14:28:06.599Z,35.1
2022-12-17T14:30:07.682Z,32.5
2022-12-17T14:32:08.788Z,36.6
2022-12-17T14:34:09.859Z,32.9
2022-12-17T14:36:14.242Z,33.8
2022-12-17T14:38:31.438Z,34
2022-12-17T14:40:16.441Z,35.2
2022-12-17T14:42:17.528Z,36.7
2022-12-17T14:44:21.368Z,33.7
2022-12-17T14:46:19.809Z,37.2
2022-12-17T14:48:20.838Z,36.8
2022-12-17T14:50:25.160Z,36.8
2022-12-17T14:52:26.242Z,33.7
2022-12-17T14:54:27.328Z,31.9
2022-12-17T14:56:28.440Z,33.1
2022-12-17T14:58:29.518Z,34.3
2022-12-17T15:00:30.589Z,36.1
2022-12-17T15:02:31.846Z,34
2022-12-17T15:04:36.031Z,39.6
2022-12-17T15:06:37.119Z,39.2
2022-12-17T15:08:38.651Z,39
2022-12-17T15:09:40.366Z,35.3
2022-12-17T15:11:41.460Z,37.6
2022-12-17T15:13:42.527Z,33
2022-12-17T15:15:43.630Z,35
2022-12-17T15:17:48.027Z,39.4
2022-12-17T15:19:55.605Z,38.1
2022-12-17T15:21:50.126Z,35.8
2022-12-17T15:23:51.203Z,36.2
2022-12-17T15:27:53.368Z,33.5
2022-12-17T15:29:54.429Z,36.4
2022-12-17T15:31:58.789Z,40.1
2022-12-17T15:34:01.446Z,32.5
2022-12-17T15:36:02.485Z,45.4
2022-12-17T15:38:03.571Z,34.1
2022-12-17T15:40:04.656Z,36.8
2022-12-17T15:42:05.731Z,33.5
2022-12-17T15:44:06.824Z,35.8
2022-12-17T15:46:11.200Z,35.2
2022-12-17T15:48:12.258Z,34.1
2022-12-17T15:50:13.309Z,34.7
2022-12-17T15:52:14.388Z,34.8
2022-12-17T15:54:15.460Z,33.8
2022-12-17T15:56:16.525Z,41.6
2022-12-17T15:58:17.709Z,32.7
2022-12-17T16:00:21.964Z,34.7
2022-12-17T16:02:23.205Z,36.1
2022-12-17T16:04:25.413Z,34.6
2022-12-17T16:05:26.278Z,32
2022-12-17T16:07:27.368Z,39.4
2022-12-17T16:09:28.452Z,32.8
2022-12-17T16:11:29.531Z,38.3
2022-12-17T16:13:33.883Z,37.7
2022-12-17T16:15:35.002Z,34.3
2022-12-17T16:17:36.040Z,35.5
2022-12-17T16:19:37.132Z,32.9
2022-12-17T16:21:43.380Z,34.9
2022-12-17T16:23:39.279Z,32.2
2022-12-17T16:25:40.341Z,36.7
2022-12-17T16:27:44.692Z,33.4
2022-12-17T16:31:46.858Z,36.5
2022-12-17T16:33:47.900Z,30.8
2022-12-17T16:35:49.013Z,31.5
2022-12-17T16:37:50.065Z,35.9
2022-12-17T16:39:55.196Z,35.8
2022-12-17T16:41:55.490Z,37.8
2022-12-17T16:43:56.572Z,33.4
2022-12-17T16:45:57.654Z,35.7
2022-12-17T16:47:58.703Z,37.4
2022-12-17T16:49:59.783Z,35
2022-12-17T16:52:00.835Z,37.2
2022-12-17T16:54:01.934Z,36
2022-12-17T17:02:37.064Z,41.9
2022-12-17T17:08:43.347Z,38.7
2022-12-17T17:10:44.419Z,34
2022-12-17T17:12:45.496Z,32.8
2022-12-17T17:14:46.564Z,32.3
2022-12-17T17:16:47.645Z,51.3
2022-12-17T17:18:48.700Z,38.2
2022-12-17T17:20:49.749Z,31.4
2022-12-17T17:22:54.102Z,35.5
2022-12-17T17:24:55.154Z,33.1
2022-12-17T17:26:56.224Z,32.7
2022-12-17T17:28:57.268Z,36.5
2022-12-17T17:30:58.367Z,33.9
2022-12-17T17:32:59.392Z,31.3
2022-12-17T17:35:00.460Z,38.3
2022-12-17T17:39:05.871Z,36.4
2022-12-17T17:41:06.885Z,45.2
2022-12-17T17:43:07.944Z,41.6
2022-12-17T17:45:09.020Z,38.9
2022-12-17T17:47:10.138Z,38.3
2022-12-17T17:49:11.091Z,39.9
2022-12-17T17:53:16.474Z,39.2
2022-12-17T17:56:19.692Z,40.4
2022-12-17T17:58:20.756Z,35.6
2022-12-17T18:00:21.765Z,44.8
2022-12-17T18:02:22.996Z,41.5
2022-12-17T18:04:27.180Z,33.2
2022-12-17T18:10:30.312Z,34.7
2022-12-17T18:16:33.511Z,34.9
2022-12-17T18:22:39.952Z,36.2
2022-12-17T18:24:40.941Z,33.2
2022-12-17T18:26:41.994Z,42.4
2022-12-17T18:32:48.403Z,39.1
2022-12-17T18:34:49.554Z,33.3
2022-12-17T18:36:50.489Z,34.7
2022-12-17T18:38:51.526Z,35.2
2022-12-17T18:40:52.602Z,33.5
2022-12-17T18:42:53.659Z,43
2022-12-17T18:44:54.683Z,35.4
2022-12-17T18:46:59.101Z,37.5
2022-12-17T18:51:02.734Z,34.2
2022-12-17T18:52:03.321Z,34.5
2022-12-17T18:54:04.366Z,30.4
2022-12-17T18:56:05.420Z,35.3
2022-12-17T18:58:06.461Z,32.5
2022-12-17T19:00:10.783Z,34.1
2022-12-17T19:02:11.907Z,32.2
2022-12-17T19:04:12.853Z,34.3
2022-12-17T19:06:13.913Z,36.7
2022-12-17T19:08:14.984Z,40.9
2022-12-17T19:10:15.995Z,35.1
2022-12-17T19:12:17.005Z,32.8
2022-12-17T19:14:21.311Z,30.8
2022-12-17T19:16:22.504Z,30.3
2022-12-17T19:18:23.423Z,32.6
2022-12-17T19:20:24.454Z,31.2
2022-12-17T19:22:25.502Z,32.3
2022-12-17T19:24:26.535Z,28.2
2022-12-17T19:26:27.610Z,32.2
2022-12-17T19:28:31.908Z,34.6
2022-12-17T19:30:32.961Z,36.4
2022-12-17T19:32:33.969Z,30.7
2022-12-17T19:34:35.017Z,29.1
2022-12-17T19:36:36.063Z,32.2
2022-12-17T19:38:37.666Z,26.8
2022-12-17T19:40:38.116Z,30
2022-12-17T19:42:42.420Z,32.6
2022-12-17T19:44:43.452Z,32.8
2022-12-17T19:46:44.513Z,31.9
2022-12-17T19:51:48.715Z,37
2022-12-17T19:53:49.800Z,30.8
2022-12-17T19:55:54.077Z,34.5
2022-12-17T20:01:57.667Z,33.4
2022-12-17T20:03:58.493Z,24.6
2022-12-17T20:05:59.634Z,32
2022-12-17T20:08:00.763Z,34.5
2022-12-17T20:10:05.127Z,35.6
2022-12-17T20:14:07.185Z,31.3
2022-12-17T20:16:08.259Z,30.4
2022-12-17T20:18:09.234Z,32.2
2022-12-17T20:20:10.287Z,28.4
2022-12-17T20:22:11.323Z,27.3
2022-12-17T20:24:15.619Z,34.8
2022-12-17T20:26:16.629Z,30.2
2022-12-17T20:28:17.653Z,30.9
2022-12-17T20:30:18.680Z,31.3
2022-12-17T20:32:19.823Z,30.5
2022-12-17T20:34:20.751Z,27
2022-12-17T20:36:21.762Z,27.9
2022-12-17T20:38:26.054Z,28.1
2022-12-17T20:40:27.111Z,28
2022-12-17T20:42:28.154Z,25.7
2022-12-17T20:46:57.776Z,31.8
2022-12-17T20:51:03.113Z,29.1
2022-12-17T20:53:04.117Z,22.6
2022-12-17T20:55:05.157Z,28.3
2022-12-17T21:05:13.511Z,31.4
2022-12-17T21:09:15.554Z,33.6
2022-12-17T21:15:18.591Z,28.7
2022-12-17T21:17:19.767Z,30.2
2022-12-17T21:19:23.894Z,35.1
2022-12-17T21:21:24.926Z,32.4
2022-12-17T21:23:27.487Z,31.2
2022-12-17T21:25:28.446Z,32.6
2022-12-17T21:27:29.486Z,34
2022-12-17T21:29:30.631Z,30.2
2022-12-17T21:31:31.540Z,35.6
2022-12-17T21:38:40.417Z,32.9
2022-12-17T21:40:40.962Z,33.3
2022-12-17T21:42:42.092Z,31.9
2022-12-17T21:44:43.106Z,32.9
2022-12-17T21:46:49.928Z,31.1
2022-12-17T21:48:48.822Z,28.6
2022-12-17T21:50:49.384Z,33.3
2022-12-17T21:52:50.387Z,33
2022-12-17T21:54:51.429Z,30.1
2022-12-17T21:56:52.413Z,28.9
2022-12-17T21:58:53.425Z,29.9
2022-12-17T22:00:57.794Z,34.3
2022-12-17T22:04:59.837Z,30.8
2022-12-17T22:07:15.481Z,33
2022-12-17T22:09:09.695Z,32.5
2022-12-17T22:11:02.883Z,32.9
2022-12-17T22:13:03.908Z,34.1
2022-12-17T22:15:08.243Z,35.3
2022-12-17T22:19:10.308Z,33.1
2022-12-17T22:21:11.414Z,33.6
2022-12-17T22:23:12.535Z,32.9
2022-12-17T22:25:13.644Z,30.3
2022-12-17T22:31:20.390Z,32.6
2022-12-17T22:33:32.235Z,37.5
2022-12-17T22:35:05.009Z,34.8
2022-12-17T22:38:54.368Z,31.8
2022-12-17T22:42:17.241Z,34.3
2022-12-17T22:43:07.135Z,33.6
2022-12-17T22:44:37.655Z,34.7
2022-12-17T22:44:49.263Z,36.5
2022-12-17T22:46:33.231Z,32.9
2022-12-17T22:48:34.159Z,31.8
2022-12-17T22:50:45.619Z,37.3
2022-12-17T22:52:36.237Z,33.8
2022-12-17T22:54:37.220Z,33.2
2022-12-17T22:57:06.128Z,34.1
2022-12-17T22:58:42.702Z,29.5
2022-12-17T23:00:43.806Z,33.4
2022-12-17T23:02:45.030Z,34.6
2022-12-17T23:04:45.966Z,31.7
2022-12-17T23:06:47.059Z,32.7
2022-12-17T23:08:48.061Z,36.7
2022-12-17T23:10:52.334Z,34.9
2022-12-17T23:12:53.318Z,29.6
2022-12-17T23:16:55.433Z,32.5
2022-12-17T23:18:56.497Z,30.5
2022-12-17T23:20:57.606Z,33
2022-12-17T23:30:07.523Z,35.9
2022-12-17T23:32:08.569Z,36.2
2022-12-17T23:34:09.651Z,35.8
2022-12-17T23:36:10.740Z,33.9
2022-12-17T23:38:15.195Z,38.6
2022-12-17T23:40:16.264Z,36.8
2022-12-17T23:42:17.322Z,38.2
2022-12-17T23:44:18.408Z,37.2
2022-12-17T23:46:19.619Z,37.7
2022-12-17T23:48:20.536Z,34.9
2022-12-17T23:50:21.599Z,35.5
2022-12-17T23:54:27.083Z,38
2022-12-17T23:58:29.216Z,37.4
